Terminal Aerodrome Forecast
Issued by NWS Nashville, TN

Home | Current Version | Previous Version | Text Only | Print | Product List | Glossary On
Versions: 1 2 3 4 5 6 7 8 9 10 11 12 13 14 15 16 17 18
000
FTUS44 KOHX 010522 AAA
TAFCSV
TAF AMD
KCSV 010522Z 0105/0206 00000KT P6SM SKC
      TEMPO 0106/0108 5SM BR
     FM010800 00000KT 5SM BR SKC
      TEMPO 0108/0112 2SM BR
     FM011400 07003KT P6SM SCT250
     FM011800 03004KT P6SM SCT060 SCT250
     FM020200 00000KT 5SM BR FEW060=

USA.gov is the U.S. government's official web portal to all federal, state and local government web resources and services.